Time;durP1;ratioP1;P1;durP2;ratioP2;P2;SDS_P1;SDS_P2;PMS_P1;PMS_P2;Temp;Humidity;BMP_temperature;BMP_pressure;BME280_temperature;BME280_humidity;BME280_pressure;Samples;Min_cycle;Max_cycle;Signal;HPM_P1;HPM_P2
2021/03/29 00:00:00;;;;;;;2.38;0.85;;;8.30;99.90;;;;;;5012878;28;20129;-75
2021/03/29 00:02:27;;;;;;;0.98;0.77;;;8.30;99.90;;;;;;5013611;28;20427;-75
2021/03/29 00:04:53;;;;;;;7.55;1.40;;;8.40;99.90;;;;;;5009358;28;20060;-76
2021/03/29 00:07:20;;;;;;;1.52;1.38;;;8.40;99.90;;;;;;5012855;28;20037;-76
2021/03/29 00:09:48;;;;;;;0.32;0.32;;;8.40;99.90;;;;;;5013950;28;20034;-76
2021/03/29 00:12:14;;;;;;;1.67;0.80;;;8.40;99.90;;;;;;5015187;28;20030;-75
2021/03/29 00:14:42;;;;;;;1.90;0.85;;;8.40;99.90;;;;;;5015001;28;20026;-76
2021/03/29 00:17:08;;;;;;;1.30;0.82;;;8.40;99.90;;;;;;5028407;28;20041;-75
2021/03/29 00:19:36;;;;;;;0.13;0.13;;;8.40;99.90;;;;;;5011643;28;20022;-76
2021/03/29 00:22:03;;;;;;;0.22;0.22;;;8.40;99.90;;;;;;5011726;28;20030;-75
2021/03/29 00:24:31;;;;;;;0.70;0.70;;;8.30;99.90;;;;;;5013645;28;20113;-76
2021/03/29 00:26:58;;;;;;;2.83;1.17;;;8.30;99.90;;;;;;5014201;28;20030;-81
2021/03/29 00:29:24;;;;;;;8.38;1.92;;;8.30;99.90;;;;;;5006725;28;20113;-76
2021/03/29 00:31:50;;;;;;;3.43;0.27;;;8.20;99.90;;;;;;5014242;28;20105;-78
2021/03/29 00:34:17;;;;;;;2.03;0.73;;;8.20;99.90;;;;;;5025051;28;20421;-75
2021/03/29 00:36:43;;;;;;;4.18;0.95;;;8.20;99.90;;;;;;5012121;28;20037;-79
2021/03/29 00:39:10;;;;;;;2.70;0.90;;;8.20;99.90;;;;;;5013317;28;20325;-81
2021/03/29 00:41:36;;;;;;;;;;;8.10;99.90;;;;;;5013291;28;20022;-76
2021/03/29 00:44:04;;;;;;;11.23;1.50;;;8.20;99.90;;;;;;5025530;28;19917;-77
2021/03/29 00:46:40;;;;;;;2.83;1.17;;;8.20;99.90;;;;;;5012209;28;20455;-79
2021/03/29 00:49:07;;;;;;;2.05;1.25;;;8.20;99.90;;;;;;5012449;28;20037;-77
2021/03/29 00:51:36;;;;;;;;;;;8.10;99.90;;;;;;5012422;28;20133;-76
2021/03/29 00:54:03;;;;;;;0.75;0.60;;;8.10;99.90;;;;;;5013656;28;19925;-75
2021/03/29 00:56:31;;;;;;;3.63;1.20;;;8.10;99.90;;;;;;5011641;28;20367;-75
2021/03/29 00:58:58;;;;;;;1.00;1.00;;;8.10;99.90;;;;;;5011797;28;20111;-76
2021/03/29 01:01:27;;;;;;;0.77;0.77;;;8.10;99.90;;;;;;5013809;28;20033;-76
2021/03/29 01:04:01;;;;;;;1.02;0.90;;;8.10;99.90;;;;;;5013008;28;20037;-77
2021/03/29 01:06:40;;;;;;;4.50;2.10;;;8.10;99.90;;;;;;5013250;28;20052;-79
2021/03/29 01:09:15;;;;;;;0.50;0.50;;;8.10;99.90;;;;;;5012866;28;20026;-76
2021/03/29 01:11:44;;;;;;;10.00;2.65;;;8.00;99.90;;;;;;5011589;28;20032;-77
2021/03/29 01:14:38;;;;;;;1.45;0.90;;;8.00;99.90;;;;;;5015834;28;20084;-77
2021/03/29 01:17:05;;;;;;;4.53;1.52;;;8.00;99.90;;;;;;5008632;28;20050;-76
2021/03/29 01:20:12;;;;;;;2.72;1.50;;;7.90;99.90;;;;;;5013698;28;20036;-76
2021/03/29 01:22:48;;;;;;;1.83;0.98;;;7.90;99.90;;;;;;5008603;28;20030;-79
2021/03/29 01:25:26;;;;;;;0.33;0.30;;;8.00;99.90;;;;;;5020889;28;20108;-75
2021/03/29 01:27:59;;;;;;;0.77;0.50;;;7.90;99.90;;;;;;5015552;28;20274;-78
2021/03/29 01:30:29;;;;;;;2.05;1.25;;;8.00;99.90;;;;;;5018746;28;20602;-84
2021/03/29 01:32:56;;;;;;;1.23;0.65;;;7.90;99.90;;;;;;5011950;28;20169;-76
2021/03/29 01:35:29;;;;;;;18.80;1.70;;;8.00;99.90;;;;;;5014256;28;20038;-79
2021/03/29 01:37:55;;;;;;;0.47;0.47;;;8.00;99.90;;;;;;4998883;28;20076;-76
2021/03/29 01:40:22;;;;;;;4.13;0.95;;;7.90;99.90;;;;;;5015286;28;20036;-80
2021/03/29 01:42:49;;;;;;;9.13;0.93;;;7.90;99.90;;;;;;5007043;28;20513;-76
2021/03/29 01:45:17;;;;;;;12.95;1.25;;;7.90;99.90;;;;;;5008053;28;20034;-75
2021/03/29 01:47:44;;;;;;;5.03;1.38;;;7.80;99.90;;;;;;5010409;28;20112;-76
2021/03/29 01:50:11;;;;;;;1.10;0.75;;;7.90;99.90;;;;;;5012195;28;20036;-75
2021/03/29 01:52:38;;;;;;;10.15;1.17;;;7.80;99.90;;;;;;5010367;28;20434;-76
2021/03/29 01:55:07;;;;;;;0.73;0.73;;;7.80;99.90;;;;;;5006550;28;20134;-80
2021/03/29 01:57:33;;;;;;;6.78;1.58;;;7.80;99.90;;;;;;5012252;28;20030;-84
2021/03/29 02:00:00;;;;;;;0.47;0.47;;;7.80;99.90;;;;;;5003345;28;20049;-76
2021/03/29 02:02:26;;;;;;;2.05;1.38;;;7.80;99.90;;;;;;5007339;28;20353;-76
2021/03/29 02:04:53;;;;;;;0.80;0.50;;;7.80;99.90;;;;;;5003924;28;20037;-81
2021/03/29 02:07:20;;;;;;;1.60;0.95;;;7.80;99.90;;;;;;5004608;28;20022;-76
2021/03/29 02:09:46;;;;;;;1.20;1.08;;;7.80;99.90;;;;;;5013406;28;20033;-80
2021/03/29 02:12:13;;;;;;;1.90;1.05;;;7.80;99.90;;;;;;5013656;28;20038;-75
2021/03/29 02:14:40;;;;;;;1.38;1.27;;;7.70;99.90;;;;;;5012482;28;20034;-79
2021/03/29 02:17:09;;;;;;;5.43;1.33;;;7.70;99.90;;;;;;5013456;28;20350;-76
2021/03/29 02:19:37;;;;;;;4.95;1.63;;;7.70;99.90;;;;;;5014158;28;20046;-76
2021/03/29 02:22:04;;;;;;;5.63;0.93;;;7.70;99.90;;;;;;5013723;28;20326;-77
2021/03/29 02:24:29;;;;;;;;;;;7.70;99.90;;;;;;5016021;28;20429;-78
2021/03/29 02:26:58;;;;;;;5.60;1.50;;;7.70;99.90;;;;;;5044339;28;19916;-79
2021/03/29 02:29:28;;;;;;;2.67;1.45;;;7.70;99.90;;;;;;5008250;28;20053;-76
2021/03/29 02:31:58;;;;;;;1.63;1.48;;;7.70;99.90;;;;;;5012954;28;20057;-82
2021/03/29 02:34:25;;;;;;;1.40;1.15;;;7.70;99.90;;;;;;5006772;28;20133;-77
2021/03/29 02:36:52;;;;;;;2.08;1.45;;;7.70;99.90;;;;;;5014008;28;20021;-75
2021/03/29 02:39:20;;;;;;;0.75;0.73;;;7.70;99.90;;;;;;5003467;28;20357;-77
2021/03/29 02:41:47;;;;;;;3.05;1.85;;;7.70;99.90;;;;;;5002622;28;20034;-76
2021/03/29 02:44:16;;;;;;;0.70;0.70;;;7.70;99.90;;;;;;5016376;28;20037;-82
2021/03/29 02:46:43;;;;;;;3.05;0.93;;;7.70;99.90;;;;;;5009932;28;20025;-76
2021/03/29 02:49:10;;;;;;;0.95;0.85;;;7.80;99.90;;;;;;5008224;28;20026;-75
2021/03/29 02:51:41;;;;;;;1.10;1.00;;;7.80;99.90;;;;;;5011587;28;20448;-77
2021/03/29 02:54:09;;;;;;;0.52;0.52;;;7.70;99.90;;;;;;5016779;28;20132;-75
2021/03/29 02:56:39;;;;;;;1.92;1.45;;;7.70;99.90;;;;;;4999568;28;20037;-76
2021/03/29 02:59:09;;;;;;;1.92;1.15;;;7.70;99.90;;;;;;5010524;28;20392;-83
2021/03/29 03:01:38;;;;;;;2.05;1.58;;;7.80;99.90;;;;;;5007333;28;20149;-77
2021/03/29 03:04:06;;;;;;;0.45;0.45;;;7.80;99.90;;;;;;5002237;28;20318;-77
2021/03/29 03:06:32;;;;;;;1.10;0.75;;;7.80;99.90;;;;;;5003907;28;20129;-77
2021/03/29 03:09:02;;;;;;;2.83;1.23;;;7.80;99.90;;;;;;5004940;28;20030;-74
2021/03/29 03:11:28;;;;;;;1.20;1.10;;;7.80;99.90;;;;;;5003890;28;20123;-79
2021/03/29 03:13:54;;;;;;;7.63;1.20;;;7.80;99.90;;;;;;5010934;28;20436;-78
2021/03/29 03:16:20;;;;;;;1.40;1.23;;;7.90;99.90;;;;;;5012344;28;20041;-84
2021/03/29 03:18:48;;;;;;;1.27;1.17;;;7.90;99.90;;;;;;5012670;28;20275;-76
2021/03/29 03:21:19;;;;;;;0.82;0.82;;;7.90;99.90;;;;;;5012083;28;20038;-77
2021/03/29 03:23:56;;;;;;;5.05;1.25;;;7.90;99.90;;;;;;5005391;28;20022;-78
2021/03/29 03:26:23;;;;;;;0.65;0.45;;;7.90;99.90;;;;;;5012200;28;20037;-75
2021/03/29 03:28:50;;;;;;;1.75;1.60;;;8.00;99.90;;;;;;4997872;28;20026;-78
2021/03/29 03:31:16;;;;;;;1.67;1.00;;;7.90;99.90;;;;;;5011300;28;20409;-76
2021/03/29 03:33:41;;;;;;;1.03;0.93;;;7.90;99.90;;;;;;5008247;28;20085;-76
2021/03/29 03:36:08;;;;;;;0.90;0.65;;;7.90;99.90;;;;;;5007977;28;20109;-80
2021/03/29 03:38:41;;;;;;;1.48;0.75;;;7.90;99.90;;;;;;5013909;28;20030;-76
2021/03/29 03:41:09;;;;;;;1.63;1.52;;;7.90;99.90;;;;;;5015543;28;20030;-78
2021/03/29 03:43:38;;;;;;;6.13;1.15;;;7.90;99.90;;;;;;5011768;28;20309;-76
2021/03/29 03:46:11;;;;;;;2.15;1.13;;;7.90;99.90;;;;;;5014647;28;20421;-79
2021/03/29 03:48:38;;;;;;;7.82;0.98;;;7.90;99.90;;;;;;5009217;28;20124;-77
2021/03/29 03:51:08;;;;;;;3.25;0.82;;;7.90;99.90;;;;;;5013687;28;20049;-76
2021/03/29 03:53:35;;;;;;;2.00;1.23;;;8.00;99.90;;;;;;5014908;28;20513;-75
2021/03/29 03:56:02;;;;;;;22.48;1.42;;;7.90;99.90;;;;;;5014639;28;20036;-75
2021/03/29 03:58:29;;;;;;;2.25;1.23;;;7.90;99.90;;;;;;5018188;28;20073;-75
2021/03/29 04:00:56;;;;;;;1.48;1.00;;;8.00;99.90;;;;;;5017554;28;20416;-75
2021/03/29 04:03:23;;;;;;;1.98;1.10;;;8.00;99.90;;;;;;5018715;28;20085;-76
2021/03/29 04:05:49;;;;;;;1.13;0.85;;;8.00;99.90;;;;;;5013927;28;20042;-76
2021/03/29 04:08:15;;;;;;;0.77;0.77;;;8.00;99.90;;;;;;5015534;28;20029;-77
2021/03/29 04:10:49;;;;;;;4.97;0.95;;;8.00;99.90;;;;;;5015583;28;20036;-80
2021/03/29 04:13:28;;;;;;;0.88;0.82;;;8.10;99.90;;;;;;5007737;28;20033;-77
2021/03/29 04:16:03;;;;;;;0.50;0.50;;;8.10;99.90;;;;;;5013096;28;20361;-76
2021/03/29 04:18:29;;;;;;;1.02;0.90;;;8.10;99.90;;;;;;5007675;28;20153;-76
2021/03/29 04:20:57;;;;;;;5.70;1.40;;;8.20;99.90;;;;;;5004710;28;20110;-75
2021/03/29 04:23:23;;;;;;;1.85;0.90;;;8.20;99.90;;;;;;5002897;28;20307;-78
2021/03/29 04:25:50;;;;;;;4.82;1.55;;;8.30;99.90;;;;;;5007524;28;20065;-77
2021/03/29 04:28:16;;;;;;;5.75;1.85;;;8.20;99.90;;;;;;5004273;28;20030;-78
2021/03/29 04:30:42;;;;;;;3.90;1.08;;;8.30;99.90;;;;;;5006592;28;20065;-80
2021/03/29 04:33:08;;;;;;;0.43;0.43;;;8.20;99.90;;;;;;4996587;28;20057;-80
2021/03/29 04:35:34;;;;;;;1.63;1.03;;;8.20;99.90;;;;;;5010229;28;20084;-77
2021/03/29 04:38:00;;;;;;;1.30;0.68;;;8.20;99.90;;;;;;5000335;28;20324;-79
2021/03/29 04:40:27;;;;;;;0.60;0.50;;;8.20;99.90;;;;;;4999829;28;20026;-83
2021/03/29 04:42:54;;;;;;;3.88;0.88;;;8.20;99.90;;;;;;5012103;28;20084;-75
2021/03/29 04:45:19;;;;;;;;;;;8.20;99.90;;;;;;5012334;28;20037;-75
2021/03/29 04:47:45;;;;;;;1.13;0.68;;;8.20;99.90;;;;;;5010995;28;20311;-81
2021/03/29 04:50:13;;;;;;;0.93;0.80;;;8.20;99.90;;;;;;5013613;28;21862;-77
2021/03/29 04:52:39;;;;;;;2.55;0.60;;;8.20;99.90;;;;;;5026522;28;20080;-79
2021/03/29 04:55:07;;;;;;;0.43;0.43;;;8.20;99.90;;;;;;5012008;28;20058;-76
2021/03/29 04:57:32;;;;;;;0.80;0.40;;;8.20;99.90;;;;;;5007983;28;20026;-76
2021/03/29 04:59:58;;;;;;;0.73;0.73;;;8.20;99.90;;;;;;5011248;28;20096;-80
2021/03/29 05:02:24;;;;;;;0.97;0.73;;;8.20;99.90;;;;;;5013636;28;20030;-82
2021/03/29 05:04:49;;;;;;;2.43;1.30;;;8.20;99.90;;;;;;5012249;28;20036;-75
2021/03/29 05:07:15;;;;;;;0.67;0.57;;;8.20;99.90;;;;;;5012806;28;20045;-77
2021/03/29 05:09:41;;;;;;;1.23;1.10;;;8.20;99.90;;;;;;5013347;28;20112;-81
2021/03/29 05:12:10;;;;;;;0.57;0.57;;;8.20;99.90;;;;;;5013266;28;20064;-84
2021/03/29 05:14:37;;;;;;;1.35;1.25;;;8.10;99.90;;;;;;5012561;28;20026;-84
2021/03/29 05:17:03;;;;;;;0.45;0.32;;;8.20;99.90;;;;;;5013412;28;20321;-79
2021/03/29 05:19:29;;;;;;;0.40;0.40;;;8.20;99.90;;;;;;5013612;28;20429;-85
2021/03/29 05:21:55;;;;;;;1.00;0.63;;;8.20;99.90;;;;;;5011871;28;20101;-75
2021/03/29 05:24:20;;;;;;;2.33;0.85;;;8.20;99.90;;;;;;5016725;28;20022;-82
2021/03/29 05:26:46;;;;;;;1.20;0.77;;;8.10;99.90;;;;;;5013175;28;20124;-80
2021/03/29 05:29:12;;;;;;;5.05;1.58;;;8.10;99.90;;;;;;5011418;28;20040;-83
2021/03/29 05:31:40;;;;;;;1.40;1.13;;;8.10;99.90;;;;;;5009376;28;20027;-77
2021/03/29 05:34:15;;;;;;;0.98;0.73;;;8.20;99.90;;;;;;5014157;28;20030;-78
2021/03/29 05:36:41;;;;;;;0.55;0.55;;;8.20;99.90;;;;;;5013915;28;20029;-84
2021/03/29 05:39:10;;;;;;;1.27;0.95;;;8.20;99.90;;;;;;5013376;28;20033;-79
2021/03/29 05:41:40;;;;;;;3.75;1.20;;;8.20;99.90;;;;;;5013038;28;20144;-79
2021/03/29 05:44:08;;;;;;;10.30;0.90;;;8.20;99.90;;;;;;5011290;28;20026;-80
2021/03/29 05:46:36;;;;;;;0.50;0.40;;;8.20;99.90;;;;;;5011705;28;20045;-77
2021/03/29 05:49:04;;;;;;;0.55;0.55;;;8.30;99.90;;;;;;5011821;28;20033;-76
2021/03/29 05:51:30;;;;;;;4.90;1.10;;;8.20;99.90;;;;;;5011223;28;20401;-81
2021/03/29 05:53:55;;;;;;;0.30;0.30;;;8.30;99.90;;;;;;5015171;28;20136;-79
2021/03/29 05:56:21;;;;;;;7.23;1.33;;;8.30;99.90;;;;;;5029328;28;20149;-79
2021/03/29 05:59:47;;;;;;;1.37;1.07;;;8.30;99.90;;;;;;5011883;28;20490;-78
2021/03/29 06:01:48;;;;;;;1.90;0.73;;;8.30;99.90;;;;;;5002974;28;20112;-81
2021/03/29 06:04:15;;;;;;;2.30;0.65;;;8.30;99.90;;;;;;5006260;28;20103;-79
2021/03/29 06:06:42;;;;;;;10.10;1.33;;;8.40;99.90;;;;;;5009364;28;20035;-80
2021/03/29 06:09:09;;;;;;;4.63;2.20;;;8.40;99.90;;;;;;5012996;28;20018;-75
2021/03/29 06:11:38;;;;;;;2.78;0.70;;;8.40;99.90;;;;;;5015426;28;20033;-77
2021/03/29 06:14:19;;;;;;;0.85;0.60;;;8.30;99.90;;;;;;5011832;28;20117;-76
2021/03/29 06:17:21;;;;;;;0.65;0.65;;;8.30;99.90;;;;;;5016293;28;20109;-75
2021/03/29 06:19:49;;;;;;;1.35;0.77;;;8.30;99.90;;;;;;5005877;28;20022;-76
2021/03/29 06:22:17;;;;;;;1.45;1.13;;;8.30;99.90;;;;;;5007796;28;20116;-80
2021/03/29 06:25:14;;;;;;;0.93;0.70;;;8.30;99.90;;;;;;4999538;28;20057;-75
2021/03/29 06:27:52;;;;;;;4.13;1.25;;;8.30;99.90;;;;;;5004598;28;20030;-78
2021/03/29 06:30:35;;;;;;;0.90;0.50;;;8.40;99.90;;;;;;5012663;28;20032;-79
2021/03/29 06:33:15;;;;;;;1.95;0.65;;;8.40;99.90;;;;;;5016238;28;20116;-76
2021/03/29 06:35:54;;;;;;;1.10;1.10;;;8.50;99.90;;;;;;5006928;28;20040;-77
2021/03/29 06:38:20;;;;;;;0.60;0.60;;;8.60;99.90;;;;;;5009384;28;20765;-76
2021/03/29 06:40:54;;;;;;;3.72;1.67;;;8.60;99.90;;;;;;5010328;28;20030;-80
2021/03/29 06:43:32;;;;;;;0.77;0.77;;;8.70;99.90;;;;;;5019034;28;20026;-78
2021/03/29 06:46:22;;;;;;;0.90;0.90;;;8.80;99.90;;;;;;4999132;28;20070;-83
2021/03/29 06:48:48;;;;;;;1.58;0.70;;;9.00;99.90;;;;;;4998508;28;20035;-77
2021/03/29 06:51:14;;;;;;;1.77;1.30;;;9.40;99.90;;;;;;4994662;28;20104;-76
2021/03/29 06:53:43;;;;;;;1.08;0.98;;;10.10;99.90;;;;;;5006377;28;20026;-83
2021/03/29 06:56:21;;;;;;;1.02;0.73;;;10.80;99.90;;;;;;5002197;28;20445;-80
2021/03/29 06:58:48;;;;;;;1.75;1.25;;;11.30;99.90;;;;;;5004377;28;20057;-75
2021/03/29 07:01:22;;;;;;;5.43;1.60;;;11.70;99.90;;;;;;5010588;28;20470;-77
2021/03/29 07:03:50;;;;;;;14.45;1.50;;;12.10;99.90;;;;;;5008314;28;20248;-76
2021/03/29 07:06:18;;;;;;;5.05;1.30;;;12.20;99.90;;;;;;5016995;28;20030;-77
2021/03/29 07:08:47;;;;;;;1.27;1.00;;;12.20;99.90;;;;;;5001639;28;20111;-75
2021/03/29 07:11:15;;;;;;;0.70;0.70;;;12.30;99.90;;;;;;5006724;28;20042;-77
2021/03/29 07:13:42;;;;;;;1.95;1.55;;;12.60;99.90;;;;;;5017442;28;20393;-76
2021/03/29 07:16:09;;;;;;;4.38;1.75;;;13.10;99.90;;;;;;5000106;28;20038;-76
2021/03/29 07:18:36;;;;;;;;;;;13.50;99.90;;;;;;5006692;28;20053;-76
2021/03/29 07:21:04;;;;;;;1.17;0.63;;;13.80;99.90;;;;;;5012905;28;19920;-75
2021/03/29 07:23:31;;;;;;;4.05;0.88;;;13.90;99.90;;;;;;5005221;28;20054;-76
2021/03/29 07:25:56;;;;;;;1.88;1.05;;;13.90;99.90;;;;;;5011915;28;20116;-76
2021/03/29 07:28:23;;;;;;;0.50;0.50;;;13.90;99.90;;;;;;5002575;28;20419;-77
2021/03/29 07:30:51;;;;;;;1.80;1.23;;;14.00;99.90;;;;;;5018681;28;20026;-76
2021/03/29 07:33:18;;;;;;;3.25;1.92;;;14.10;99.90;;;;;;5021960;28;20034;-77
2021/03/29 07:35:55;;;;;;;1.30;0.35;;;14.40;99.90;;;;;;5014586;28;20034;-77
2021/03/29 07:38:23;;;;;;;0.70;0.70;;;14.50;99.90;;;;;;5013149;28;20018;-76
2021/03/29 07:40:57;;;;;;;0.90;0.47;;;14.70;99.90;;;;;;5003090;28;20038;-78
2021/03/29 07:43:25;;;;;;;0.70;0.70;;;14.70;99.90;;;;;;5000855;28;20148;-78
2021/03/29 07:46:03;;;;;;;1.13;0.68;;;14.90;99.90;;;;;;5003123;28;20026;-76
2021/03/29 07:48:42;;;;;;;0.32;0.32;;;14.80;99.90;;;;;;5012860;28;20033;-76
2021/03/29 07:51:13;;;;;;;1.20;1.08;;;14.90;99.90;;;;;;5011831;28;20442;-77
2021/03/29 07:53:50;;;;;;;0.65;0.65;;;15.10;99.90;;;;;;5017714;28;20120;-79
2021/03/29 07:56:34;;;;;;;9.05;1.38;;;15.20;99.90;;;;;;5016185;28;20087;-74
2021/03/29 07:59:02;;;;;;;2.08;1.25;;;15.50;99.90;;;;;;5019167;28;20033;-77
2021/03/29 08:01:48;;;;;;;0.50;0.50;;;15.30;99.90;;;;;;5023452;28;20459;-82
2021/03/29 08:04:14;;;;;;;0.93;0.70;;;15.40;99.90;;;;;;5017056;28;20030;-75
2021/03/29 08:06:46;;;;;;;1.30;0.87;;;15.80;99.90;;;;;;5015674;28;20033;-79
2021/03/29 08:09:15;;;;;;;1.75;1.02;;;15.90;99.90;;;;;;5000999;28;20442;-75
2021/03/29 08:11:54;;;;;;;0.60;0.38;;;15.80;99.90;;;;;;4998831;28;20030;-75
2021/03/29 08:14:34;;;;;;;0.68;0.43;;;15.90;99.90;;;;;;5001491;28;20022;-76
2021/03/29 08:17:37;;;;;;;2.35;0.85;;;16.20;99.90;;;;;;5009962;28;20128;-79
2021/03/29 08:20:09;;;;;;;1.77;0.98;;;16.20;99.90;;;;;;5023877;28;20089;-78
2021/03/29 08:22:35;;;;;;;11.00;1.58;;;15.40;99.90;;;;;;5014119;28;20018;-77
2021/03/29 08:25:01;;;;;;;1.67;0.70;;;15.30;99.90;;;;;;5011274;28;20030;-74
2021/03/29 08:27:26;;;;;;;2.40;1.10;;;15.50;99.90;;;;;;5014030;28;20022;-78
2021/03/29 08:29:54;;;;;;;12.70;1.00;;;15.30;99.90;;;;;;5005624;28;20113;-77
2021/03/29 08:32:36;;;;;;;1.33;0.73;;;15.50;99.90;;;;;;5015228;28;20076;-76
2021/03/29 08:35:11;;;;;;;1.85;0.68;;;15.60;99.90;;;;;;5010846;28;20034;-77
2021/03/29 08:37:49;;;;;;;0.82;0.43;;;15.80;99.90;;;;;;5015706;28;20290;-74
2021/03/29 08:40:17;;;;;;;11.43;1.77;;;15.70;99.90;;;;;;5012313;28;20374;-78
2021/03/29 08:42:46;;;;;;;4.75;0.90;;;15.40;99.90;;;;;;5012601;28;20084;-79
2021/03/29 08:45:14;;;;;;;0.65;0.65;;;15.30;99.90;;;;;;5014398;28;20117;-80
2021/03/29 08:47:44;;;;;;;2.17;1.15;;;15.40;99.90;;;;;;5012719;28;20409;-74
2021/03/29 08:50:17;;;;;;;0.50;0.50;;;15.60;99.90;;;;;;5018134;28;20065;-74
2021/03/29 08:52:50;;;;;;;2.70;1.55;;;15.70;99.90;;;;;;5007856;28;20053;-79
2021/03/29 08:55:24;;;;;;;0.55;0.40;;;15.60;99.90;;;;;;5019584;28;20029;-74
2021/03/29 08:57:51;;;;;;;3.72;0.85;;;15.50;99.90;;;;;;5016604;28;20362;-76
2021/03/29 09:00:18;;;;;;;;;;;15.40;99.90;;;;;;5006417;28;20338;-78
2021/03/29 09:02:44;;;;;;;4.50;1.10;;;15.40;99.90;;;;;;5007975;28;20275;-74
2021/03/29 09:05:12;;;;;;;3.20;1.13;;;15.70;99.90;;;;;;5000570;28;20030;-75
2021/03/29 09:07:42;;;;;;;0.98;0.77;;;16.20;99.90;;;;;;5008030;28;20030;-76
2021/03/29 09:10:33;;;;;;;3.08;1.05;;;16.40;99.90;;;;;;5008090;28;20029;-79
2021/03/29 09:13:00;;;;;;;1.50;1.30;;;16.10;99.90;;;;;;5010868;28;20033;-74
2021/03/29 09:15:28;;;;;;;2.38;1.15;;;16.00;99.90;;;;;;5010263;28;20061;-76
2021/03/29 09:18:02;;;;;;;2.78;1.25;;;15.90;99.90;;;;;;5012867;28;20111;-74
2021/03/29 09:20:47;;;;;;;0.68;0.63;;;16.10;99.90;;;;;;5013238;28;20018;-76
2021/03/29 09:23:15;;;;;;;3.03;1.25;;;16.00;99.90;;;;;;5007356;28;20428;-77
2021/03/29 09:25:46;;;;;;;5.72;2.03;;;15.90;99.90;;;;;;5013879;28;20046;-74
2021/03/29 09:30:58;;;;;;;1.73;1.15;;;15.90;99.90;;;;;;5008247;28;20025;-76
2021/03/29 09:33:24;;;;;;;2.15;1.05;;;15.90;99.90;;;;;;5013005;28;20022;-74
2021/03/29 09:35:51;;;;;;;5.97;0.97;;;16.00;99.90;;;;;;5011162;28;20294;-75
2021/03/29 09:38:31;;;;;;;1.05;0.77;;;15.90;99.90;;;;;;5010384;28;20495;-76
2021/03/29 09:40:57;;;;;;;5.57;1.60;;;15.60;99.90;;;;;;5008585;28;20428;-76
2021/03/29 09:43:23;;;;;;;1.17;1.07;;;15.50;99.90;;;;;;5011469;28;20034;-75
2021/03/29 09:45:48;;;;;;;5.97;0.70;;;15.60;99.90;;;;;;5010738;28;20022;-75
2021/03/29 09:48:15;;;;;;;1.37;1.03;;;15.50;99.90;;;;;;5010954;28;20034;-78
2021/03/29 09:50:44;;;;;;;8.25;2.20;;;15.80;99.90;;;;;;5005957;28;20093;-76
2021/03/29 09:53:20;;;;;;;2.20;1.60;;;15.90;99.90;;;;;;5010729;28;20088;-78
2021/03/29 09:55:51;;;;;;;2.47;0.47;;;16.10;99.90;;;;;;5009831;28;20053;-76
2021/03/29 09:58:21;;;;;;;0.40;0.40;;;16.40;99.90;;;;;;5011180;28;20030;-76
2021/03/29 10:00:49;;;;;;;0.98;0.90;;;16.50;99.90;;;;;;5008652;28;20036;-74
2021/03/29 10:03:17;;;;;;;5.57;1.48;;;16.20;99.90;;;;;;5012351;28;20018;-74
2021/03/29 10:05:43;;;;;;;1.35;0.88;;;16.40;99.90;;;;;;5013193;28;20034;-74
2021/03/29 10:08:09;;;;;;;2.92;0.80;;;16.50;99.90;;;;;;5013236;28;20029;-77
2021/03/29 10:10:34;;;;;;;6.83;1.47;;;16.60;99.90;;;;;;5008155;28;20034;-76
2021/03/29 10:13:11;;;;;;;11.43;1.70;;;16.70;99.90;;;;;;5005947;28;20113;-74
2021/03/29 10:15:38;;;;;;;;;;;16.70;99.90;;;;;;5011652;28;20029;-79
2021/03/29 10:18:14;;;;;;;3.17;0.80;;;16.50;99.90;;;;;;5010442;28;19967;-77
2021/03/29 10:20:45;;;;;;;4.95;2.05;;;16.50;99.90;;;;;;5011340;28;20068;-79
2021/03/29 10:23:24;;;;;;;0.60;0.60;;;16.30;99.90;;;;;;5011770;28;20317;-78
2021/03/29 10:26:18;;;;;;;3.88;0.80;;;16.20;99.90;;;;;;5009486;28;20080;-78
2021/03/29 10:28:58;;;;;;;6.13;1.80;;;16.30;99.90;;;;;;5009956;28;20362;-78
2021/03/29 10:31:25;;;;;;;0.73;0.50;;;16.30;99.90;;;;;;5011684;28;20137;-81
2021/03/29 10:33:51;;;;;;;1.60;1.15;;;16.20;99.90;;;;;;5008292;28;20367;-76
2021/03/29 10:36:18;;;;;;;1.50;0.60;;;16.10;99.90;;;;;;5006986;28;20153;-77
2021/03/29 10:38:44;;;;;;;2.00;0.60;;;16.30;99.90;;;;;;5004857;28;20026;-78
2021/03/29 10:41:11;;;;;;;2.70;1.25;;;16.20;99.90;;;;;;5016015;28;20441;-75
2021/03/29 10:43:38;;;;;;;1.08;0.45;;;16.20;99.90;;;;;;5013196;28;20033;-77
2021/03/29 10:46:04;;;;;;;23.67;2.22;;;16.30;99.90;;;;;;4996120;28;20023;-76
2021/03/29 10:48:30;;;;;;;;;;;16.30;99.90;;;;;;5003783;28;20112;-81
2021/03/29 10:50:57;;;;;;;1.57;1.13;;;16.50;99.90;;;;;;5012877;28;20004;-74
2021/03/29 10:53:23;;;;;;;1.83;0.80;;;16.60;99.90;;;;;;5011205;28;20543;-76
2021/03/29 10:55:49;;;;;;;5.40;1.27;;;16.60;99.90;;;;;;5005165;28;20117;-77
2021/03/29 10:58:15;;;;;;;2.53;1.42;;;16.60;99.90;;;;;;5016275;28;20325;-77
2021/03/29 11:00:41;;;;;;;3.37;1.37;;;16.50;99.90;;;;;;5015908;28;20029;-80
2021/03/29 11:03:07;;;;;;;1.97;0.73;;;16.70;99.90;;;;;;5014191;28;20306;-78
2021/03/29 11:05:32;;;;;;;1.63;0.83;;;16.70;99.90;;;;;;5015548;28;20404;-76
2021/03/29 11:07:58;;;;;;;2.27;0.73;;;16.70;99.90;;;;;;5013444;28;21205;-76
2021/03/29 11:10:24;;;;;;;1.40;1.30;;;16.70;99.90;;;;;;5015971;28;20345;-74
2021/03/29 11:12:50;;;;;;;4.30;1.53;;;16.90;99.90;;;;;;5018500;28;20079;-74
2021/03/29 11:15:15;;;;;;;10.07;1.53;;;16.70;99.90;;;;;;5016410;28;20073;-79
2021/03/29 11:17:42;;;;;;;2.47;0.93;;;17.00;99.90;;;;;;5016212;28;20022;-75
2021/03/29 11:20:08;;;;;;;6.28;1.23;;;17.20;99.90;;;;;;5028019;28;20026;-74
2021/03/29 11:22:35;;;;;;;3.45;1.30;;;17.30;99.90;;;;;;5011484;28;20040;-74
2021/03/29 11:25:01;;;;;;;1.73;0.93;;;17.30;99.90;;;;;;5007461;28;20025;-80
2021/03/29 11:27:26;;;;;;;2.93;1.10;;;17.10;99.90;;;;;;5022288;28;20026;-78
2021/03/29 11:29:52;;;;;;;1.40;1.17;;;17.00;99.90;;;;;;5017103;28;20291;-77
2021/03/29 11:32:18;;;;;;;3.33;1.00;;;17.00;99.90;;;;;;5012772;28;20179;-75
2021/03/29 11:34:44;;;;;;;2.43;1.47;;;16.80;99.90;;;;;;5014457;28;20364;-76
2021/03/29 11:37:10;;;;;;;1.83;1.33;;;16.80;99.90;;;;;;5012605;28;20100;-80
2021/03/29 11:39:36;;;;;;;13.37;1.80;;;16.80;99.90;;;;;;5013642;28;20057;-79
2021/03/29 11:42:02;;;;;;;5.60;1.73;;;16.60;99.90;;;;;;5012043;28;20033;-74
2021/03/29 11:44:28;;;;;;;0.60;0.60;;;16.60;99.90;;;;;;5015178;28;20041;-79
2021/03/29 11:46:54;;;;;;;5.20;1.37;;;16.60;99.90;;;;;;5030447;28;20259;-76
2021/03/29 11:49:19;;;;;;;2.30;1.63;;;16.80;99.90;;;;;;5014655;28;20409;-79
2021/03/29 11:51:45;;;;;;;3.00;1.47;;;16.90;99.90;;;;;;5020423;28;20439;-81
2021/03/29 11:54:11;;;;;;;3.47;1.67;;;17.10;99.90;;;;;;5022393;28;20030;-74
2021/03/29 11:56:38;;;;;;;1.43;0.97;;;17.30;99.90;;;;;;5010664;28;20381;-75
2021/03/29 11:59:04;;;;;;;1.58;1.02;;;17.40;99.90;;;;;;5014688;28;20367;-75
2021/03/29 12:01:49;;;;;;;2.75;0.88;;;17.40;99.90;;;;;;5009556;28;20026;-76
2021/03/29 12:09:35;;;;;;;0.68;0.68;;;17.30;99.90;;;;;;5014831;28;21422;-77
2021/03/29 12:12:05;;;;;;;2.50;1.00;;;17.10;99.90;;;;;;5010310;28;20045;-75
2021/03/29 12:14:35;;;;;;;1.27;1.00;;;17.10;99.90;;;;;;5011381;28;21355;-79
2021/03/29 12:17:03;;;;;;;2.22;1.80;;;17.20;99.90;;;;;;5011150;28;20413;-77
2021/03/29 12:19:30;;;;;;;5.38;1.50;;;17.20;99.90;;;;;;5012361;28;20026;-78
2021/03/29 12:21:59;;;;;;;1.52;1.42;;;17.20;99.90;;;;;;5012197;28;20058;-83
2021/03/29 12:24:30;;;;;;;1.98;1.42;;;17.20;99.90;;;;;;5010894;28;20100;-77
2021/03/29 12:27:00;;;;;;;4.65;1.23;;;17.10;99.90;;;;;;5014217;28;20398;-79
2021/03/29 12:29:36;;;;;;;2.00;1.40;;;17.20;99.90;;;;;;5012877;28;20026;-77
2021/03/29 12:32:07;;;;;;;1.45;1.30;;;17.20;99.90;;;;;;5026776;28;20100;-78
2021/03/29 12:34:34;;;;;;;7.22;1.80;;;17.00;99.90;;;;;;5012970;28;20033;-78
2021/03/29 12:37:00;;;;;;;;;;;17.00;99.90;;;;;;5013958;28;20037;-78
2021/03/29 12:40:11;;;;;;;3.80;1.63;;;16.90;99.90;;;;;;5011654;28;20186;-75
2021/03/29 12:42:20;;;;;;;2.00;1.08;;;16.90;99.90;;;;;;5010298;28;20120;-76
2021/03/29 12:44:48;;;;;;;7.20;1.75;;;17.00;99.90;;;;;;5012045;28;20028;-76
2021/03/29 12:47:16;;;;;;;8.98;1.52;;;17.00;99.90;;;;;;5009892;28;20030;-76
2021/03/29 12:49:41;;;;;;;5.68;1.92;;;17.10;99.90;;;;;;5013170;28;20026;-76
2021/03/29 12:52:07;;;;;;;1.97;1.20;;;17.40;99.90;;;;;;5008267;28;20101;-78
2021/03/29 12:54:34;;;;;;;3.83;1.47;;;17.30;99.90;;;;;;5014556;28;20381;-76
2021/03/29 12:57:00;;;;;;;;;;;17.40;99.90;;;;;;5013024;28;20034;-79
2021/03/29 12:59:31;;;;;;;5.85;1.20;;;17.10;99.90;;;;;;5014497;28;19921;-77
2021/03/29 13:01:58;;;;;;;5.43;1.40;;;17.00;99.90;;;;;;5013077;28;20321;-79
2021/03/29 13:12:21;;;;;;;2.70;1.58;;;17.40;99.90;;;;;;5014645;28;20399;-77
2021/03/29 13:14:57;;;;;;;2.20;0.80;;;17.50;99.90;;;;;;5013871;28;20371;-75
2021/03/29 13:17:22;;;;;;;1.42;0.90;;;17.40;99.90;;;;;;5013522;28;20057;-77
2021/03/29 13:19:48;;;;;;;2.57;1.00;;;17.50;99.90;;;;;;5012491;28;20069;-80
2021/03/29 13:22:14;;;;;;;0.67;0.67;;;17.50;99.90;;;;;;5004657;28;20037;-77